Time;durP1;ratioP1;P1;durP2;ratioP2;P2;SDS_P1;SDS_P2;PMS_P1;PMS_P2;Temp;Humidity;BMP_temperature;BMP_pressure;BME280_temperature;BME280_humidity;BME280_pressure;Samples;Min_cycle;Max_cycle;Signal;HPM_P1;HPM_P2
2022/02/26 00:01:53;;;;;;;56.28;27.15;;;;;;;1.91;83.68;99744.78;1743814;82;21515;-72
2022/02/26 00:04:19;;;;;;;49.25;23.70;;;;;;;1.94;83.72;99743.47;1743740;82;21050;-71
2022/02/26 00:06:45;;;;;;;49.50;23.80;;;;;;;1.96;83.95;99750.00;1743586;80;21549;-73
2022/02/26 00:09:12;;;;;;;48.30;23.07;;;;;;;1.99;84.17;99741.33;1741516;82;21043;-72
2022/02/26 00:11:39;;;;;;;46.42;23.42;;;;;;;2.01;84.23;99749.52;1744341;80;21475;-72
2022/02/26 00:14:08;;;;;;;45.05;22.48;;;;;;;2.03;84.34;99753.34;1743817;82;21002;-72
2022/02/26 00:16:36;;;;;;;41.70;21.75;;;;;;;2.04;84.66;99759.88;1743551;81;21033;-74
2022/02/26 00:19:03;;;;;;;43.63;20.55;;;;;;;2.06;84.77;99755.54;1743695;82;22095;-73
2022/02/26 00:21:30;;;;;;;47.48;24.05;;;;;;;2.09;84.97;99768.61;1743380;82;21526;-72
2022/02/26 00:23:58;;;;;;;44.08;21.65;;;;;;;2.13;85.08;99771.08;1743525;82;21542;-72
2022/02/26 00:26:28;;;;;;;48.85;22.37;;;;;;;2.15;85.25;99771.66;1743614;82;20836;-73
2022/02/26 00:28:56;;;;;;;50.90;23.05;;;;;;;2.19;85.42;99774.68;1743279;82;21025;-73
2022/02/26 00:31:25;;;;;;;50.88;24.05;;;;;;;2.21;85.47;99768.98;1743939;82;21597;-73
2022/02/26 00:33:57;;;;;;;41.40;21.70;;;;;;;2.19;85.61;99776.87;1744177;82;21510;-72
2022/02/26 00:36:25;;;;;;;51.92;22.48;;;;;;;2.21;85.63;99778.50;1743665;80;21482;-73
2022/02/26 00:38:54;;;;;;;49.48;24.15;;;;;;;2.22;85.73;99780.16;1743712;81;21521;-73
2022/02/26 00:41:22;;;;;;;46.42;22.65;;;;;;;2.22;85.76;99777.44;1743414;82;20978;-72
2022/02/26 00:43:50;;;;;;;43.70;22.60;;;;;;;2.21;85.90;99775.78;1712550;82;21504;-71
2022/02/26 00:46:18;;;;;;;42.98;21.02;;;;;;;2.18;86.05;99782.01;1743270;82;20998;-72
2022/02/26 00:51:33;;;;;;;45.48;22.25;;;;;;;2.19;86.32;99785.03;1743410;82;21472;-69
2022/02/26 00:54:05;;;;;;;42.30;21.00;;;;;;;2.22;86.41;99788.31;1742248;82;21038;-71
2022/02/26 00:56:37;;;;;;;35.95;17.40;;;;;;;2.22;86.59;99781.52;1744861;80;20958;-71
2022/02/26 00:59:04;;;;;;;33.38;17.35;;;;;;;2.24;86.60;99787.50;1742645;80;20903;-72
2022/02/26 01:01:35;;;;;;;32.08;15.03;;;;;;;2.25;86.59;99793.23;1721904;80;21073;-71
2022/02/26 01:04:04;;;;;;;28.40;12.43;;;;;;;2.26;86.56;99789.42;1742172;80;20959;-72
2022/02/26 01:06:36;;;;;;;22.17;11.80;;;;;;;2.27;86.32;99789.73;1743824;80;21411;-72
2022/02/26 01:09:09;;;;;;;22.77;11.35;;;;;;;2.29;86.21;99798.42;1739188;82;20966;-72
2022/02/26 01:11:36;;;;;;;19.40;11.22;;;;;;;2.28;86.02;99796.27;1743588;82;20879;-70
2022/02/26 01:14:02;;;;;;;20.55;10.90;;;;;;;2.29;86.09;99806.58;1743654;80;20963;-73
2022/02/26 01:16:33;;;;;;;20.02;10.93;;;;;;;2.27;86.22;99812.84;1743679;82;21009;-72
2022/02/26 01:19:04;;;;;;;22.95;11.05;;;;;;;2.26;86.16;99812.02;1743396;82;21522;-73
2022/02/26 01:21:33;;;;;;;19.87;10.03;;;;;;;2.27;86.18;99816.92;1742430;81;21544;-70
2022/02/26 01:24:01;;;;;;;16.85;9.68;;;;;;;2.27;86.22;99819.08;1718603;82;21050;-72
2022/02/26 01:26:28;;;;;;;21.17;9.63;;;;;;;2.27;86.04;99816.92;1698378;83;20942;-70
2022/02/26 01:29:03;;;;;;;17.92;9.15;;;;;;;2.25;86.02;99822.59;1691905;84;20944;-72
2022/02/26 01:31:35;;;;;;;18.23;9.38;;;;;;;2.23;85.93;99815.78;1691761;83;20905;-71
2022/02/26 01:34:04;;;;;;;18.12;8.93;;;;;;;2.19;85.84;99819.02;1691862;84;21537;-73
2022/02/26 01:36:34;;;;;;;14.70;7.92;;;;;;;2.15;85.90;99825.23;1688558;84;20893;-72
2022/02/26 01:39:06;;;;;;;16.73;8.58;;;;;;;2.11;85.96;99826.28;1729890;82;20938;-73
2022/02/26 01:41:35;;;;;;;15.87;7.53;;;;;;;2.08;86.03;99829.52;1756768;81;21447;-73
2022/02/26 01:44:07;;;;;;;14.30;8.08;;;;;;;2.08;86.16;99831.41;1734303;81;21375;-74
2022/02/26 01:46:34;;;;;;;11.15;6.55;;;;;;;2.06;86.21;99835.17;1686451;84;21136;-73
2022/02/26 01:49:06;;;;;;;11.38;6.53;;;;;;;2.08;86.23;99830.88;1741810;81;21455;-73
2022/02/26 01:51:32;;;;;;;15.53;6.75;;;;;;;2.07;86.25;99833.29;1743051;82;21498;-70
2022/02/26 01:54:03;;;;;;;10.65;6.92;;;;;;;2.08;86.17;99829.52;1712880;82;21104;-70
2022/02/26 01:56:31;;;;;;;10.00;5.50;;;;;;;2.08;86.06;99839.56;1693789;82;21042;-72
2022/02/26 01:59:02;;;;;;;11.22;5.30;;;;;;;2.05;86.05;99838.98;1688156;83;21015;-72
2022/02/26 02:01:38;;;;;;;7.12;4.67;;;;;;;2.06;86.03;99846.61;1752484;79;21035;-72
2022/02/26 02:04:08;;;;;;;7.87;5.30;;;;;;;2.05;86.03;99845.78;1751532;79;21170;-71
2022/02/26 02:06:36;;;;;;;8.00;5.10;;;;;;;2.03;86.03;99853.92;1758147;81;21102;-71
2022/02/26 02:09:04;;;;;;;10.93;6.55;;;;;;;1.98;86.18;99852.50;1758305;81;21408;-73
2022/02/26 02:11:34;;;;;;;10.28;5.40;;;;;;;1.98;86.22;99859.30;1758210;81;21939;-73
2022/02/26 02:14:03;;;;;;;9.25;5.53;;;;;;;1.96;86.19;99855.48;1726092;81;20949;-72
2022/02/26 02:16:33;;;;;;;7.72;4.72;;;;;;;1.95;86.16;99861.97;1750845;81;20988;-69
2022/02/26 02:19:09;;;;;;;7.08;4.95;;;;;;;1.91;86.30;99864.93;1758562;81;21428;-73
2022/02/26 02:21:37;;;;;;;8.95;5.35;;;;;;;1.89;86.39;99865.72;1752930;81;20924;-73
2022/02/26 02:24:06;;;;;;;9.88;5.47;;;;;;;1.87;86.39;99865.97;1758192;81;21565;-73
2022/02/26 02:26:37;;;;;;;11.00;5.83;;;;;;;1.87;86.36;99872.77;1758244;81;20841;-72
2022/02/26 02:32:43;;;;;;;7.95;4.92;;;;;;;1.84;86.41;99874.64;1683027;85;20999;-72
2022/02/26 02:35:39;;;;;;;9.05;5.25;;;;;;;1.80;86.49;99871.59;1683116;85;21063;-73
2022/02/26 02:38:11;;;;;;;8.65;5.03;;;;;;;1.77;86.53;99876.71;1683139;85;21962;-73
2022/02/26 02:40:38;;;;;;;8.85;4.97;;;;;;;1.75;86.55;99882.93;1683079;85;21574;-68
2022/02/26 02:43:10;;;;;;;8.60;4.80;;;;;;;1.73;86.59;99883.71;1682997;85;21034;-69
2022/02/26 02:45:40;;;;;;;9.38;4.62;;;;;;;1.67;86.66;99880.13;1683110;85;21106;-73
2022/02/26 02:48:07;;;;;;;7.55;5.08;;;;;;;1.64;86.90;99884.15;1683228;85;21090;-71
2022/02/26 02:50:33;;;;;;;6.05;4.30;;;;;;;1.60;87.01;99891.17;1683183;85;21161;-72
2022/02/26 03:12:21;;;;;;;8.85;5.00;;;;;;;1.46;88.05;99911.08;1758402;81;20929;-73
2022/02/26 03:14:48;;;;;;;7.47;4.85;;;;;;;1.44;88.03;99911.85;1758334;81;20928;-70
2022/02/26 03:17:29;;;;;;;11.78;5.28;;;;;;;1.40;88.22;99911.53;1724503;81;21429;-72
2022/02/26 03:20:00;;;;;;;;;;;;;;;1.39;88.40;99923.47;1731875;81;21542;-70
2022/02/26 03:22:29;;;;;;;9.80;5.08;;;;;;;1.37;88.68;99918.82;1758249;81;20098;-70
2022/02/26 03:24:56;;;;;;;10.60;6.30;;;;;;;1.33;88.65;99916.33;1758146;81;21264;-72
2022/02/26 03:27:24;;;;;;;13.43;6.70;;;;;;;1.31;89.03;99921.18;1758310;81;20932;-73
2022/02/26 03:29:54;;;;;;;9.65;5.83;;;;;;;1.29;89.23;99917.88;1724957;81;20971;-72
2022/02/26 03:32:29;;;;;;;10.38;5.72;;;;;;;1.28;89.51;99923.84;1758258;81;21195;-70
2022/02/26 03:34:55;;;;;;;10.85;6.08;;;;;;;1.27;89.47;99926.80;1758355;81;20968;-70
2022/02/26 03:37:22;;;;;;;11.30;6.55;;;;;;;1.24;89.43;99932.73;1758206;81;20988;-71
2022/02/26 03:39:50;;;;;;;12.53;6.53;;;;;;;1.21;89.60;99936.78;1752858;81;20960;-73
2022/02/26 03:42:18;;;;;;;9.58;6.28;;;;;;;1.19;89.67;99941.63;1758610;81;21106;-71
2022/02/26 03:44:48;;;;;;;12.75;6.47;;;;;;;1.17;89.80;99941.05;1758285;81;22173;-73
2022/02/26 03:47:19;;;;;;;18.23;8.53;;;;;;;1.14;90.18;99942.38;1758158;81;21014;-71
2022/02/26 04:10:46;;;;;;;16.45;8.60;;;;;;;0.89;91.21;99976.14;1757670;81;21043;-69
2022/02/26 04:13:15;;;;;;;14.00;7.42;;;;;;;0.88;91.40;99979.94;1757924;81;20913;-74
2022/02/26 04:32:55;;;;;;;15.50;8.88;;;;;;;0.59;92.46;100021.98;1758264;81;21452;-71
2022/02/26 04:35:24;;;;;;;20.90;8.83;;;;;;;0.55;92.99;100028.94;1758506;81;20841;-69
2022/02/26 04:37:54;;;;;;;14.95;8.60;;;;;;;0.54;93.22;100034.09;1758244;81;20953;-71
2022/02/26 04:40:24;;;;;;;19.25;8.85;;;;;;;0.55;93.36;100037.08;1751719;80;20938;-71
2022/02/26 04:42:52;;;;;;;16.85;9.03;;;;;;;0.53;93.59;100050.08;1741522;81;20988;-72
2022/02/26 04:45:27;;;;;;;15.38;8.48;;;;;;;0.51;93.75;100051.68;1737547;82;20901;-72
2022/02/26 04:47:55;;;;;;;14.58;8.18;;;;;;;0.50;93.92;100055.95;1737158;80;20989;-72
2022/02/26 04:50:24;;;;;;;14.07;8.53;;;;;;;0.55;94.19;100066.91;1745505;80;20837;-73
2022/02/26 05:00:04;;;;;;;13.72;9.30;;;;;;;0.67;94.61;100083.16;1751242;80;21500;-72
2022/02/26 05:02:39;;;;;;;15.35;10.15;;;;;;;0.65;94.71;100083.41;1757621;80;20996;-70
2022/02/26 05:05:08;;;;;;;21.52;10.32;;;;;;;0.63;94.99;100092.34;1754192;81;21535;-72
2022/02/26 05:49:41;;;;;;;23.80;11.70;;;;;;;0.45;97.38;100138.04;1742109;80;20925;-73
2022/02/26 05:52:08;;;;;;;26.73;13.67;;;;;;;0.49;97.42;100140.59;1766324;79;21552;-72
2022/02/26 05:54:37;;;;;;;22.62;12.82;;;;;;;0.52;97.46;100143.34;1728206;81;20997;-74
2022/02/26 05:57:04;;;;;;;28.17;12.95;;;;;;;0.51;97.39;100143.06;1738812;80;20993;-71
2022/02/26 07:44:27;;;;;;;20.77;9.75;;;;;;;3.07;77.42;100274.76;1758141;81;20904;-75
2022/02/26 07:46:53;;;;;;;15.15;8.50;;;;;;;3.22;75.37;100280.95;1720612;82;21008;-72
2022/02/26 07:49:21;;;;;;;17.85;9.05;;;;;;;3.31;74.71;100282.14;1784690;77;21919;-73
2022/02/26 07:51:47;;;;;;;18.90;8.83;;;;;;;3.40;74.15;100272.47;1793810;77;20966;-74
2022/02/26 07:54:13;;;;;;;22.30;10.55;;;;;;;3.52;74.08;100274.23;1792324;77;20954;-73
2022/02/26 07:56:39;;;;;;;13.88;7.00;;;;;;;3.64;73.93;100287.20;1797755;79;21095;-71
2022/02/26 07:59:11;;;;;;;18.98;9.38;;;;;;;3.74;71.50;100282.92;1802232;78;21433;-74
2022/02/26 08:01:38;;;;;;;15.03;7.15;;;;;;;3.78;68.10;100286.80;1804464;79;21017;-75
2022/02/26 08:04:07;;;;;;;10.65;4.97;;;;;;;3.80;67.51;100292.83;1794346;78;20940;-73
2022/02/26 08:06:34;;;;;;;15.40;5.45;;;;;;;3.88;67.44;100288.28;1783338;78;21091;-74
2022/02/26 08:09:11;;;;;;;20.12;8.65;;;;;;;4.00;67.39;100289.49;1782994;78;21066;-72
2022/02/26 08:11:42;;;;;;;20.82;7.12;;;;;;;4.11;65.67;100290.40;1772446;80;20971;-73
2022/02/26 08:14:11;;;;;;;10.03;5.00;;;;;;;4.19;66.27;100294.59;1768033;79;21775;-72
2022/02/26 08:20:26;;;;;;;16.10;7.25;;;;;;;4.40;65.25;100290.69;1774038;80;20964;-71
2022/02/26 08:22:57;;;;;;;15.28;7.40;;;;;;;4.55;64.07;100297.34;1774252;79;21026;-72
2022/02/26 08:25:23;;;;;;;17.57;6.80;;;;;;;4.63;61.39;100299.05;1780793;79;20876;-72
2022/02/26 08:27:52;;;;;;;8.48;4.17;;;;;;;4.70;62.73;100303.46;1773310;80;21636;-73
2022/02/26 08:40:02;;;;;;;14.30;4.72;;;;;;;5.02;60.37;100290.30;1772718;80;21513;-73
2022/02/26 08:42:28;;;;;;;7.30;4.12;;;;;;;5.14;60.23;100292.83;1754575;79;20997;-74
2022/02/26 08:44:56;;;;;;;8.68;3.02;;;;;;;5.28;58.59;100312.31;1794330;78;21536;-72
2022/02/26 08:47:23;;;;;;;8.88;2.70;;;;;;;5.35;57.70;100304.70;1784248;78;21006;-73
2022/02/26 08:49:51;;;;;;;12.07;4.12;;;;;;;5.38;56.83;100305.23;1781357;79;21480;-74
2022/02/26 08:52:19;;;;;;;5.65;2.67;;;;;;;5.42;57.48;100307.73;1786794;78;20995;-72
2022/02/26 08:54:47;;;;;;;9.95;2.52;;;;;;;5.44;56.40;100309.09;1770322;80;21050;-72
2022/02/26 08:57:19;;;;;;;;;;;;;;;5.46;57.10;100310.20;1772526;80;20865;-73
2022/02/26 08:59:45;;;;;;;12.82;3.92;;;;;;;5.56;57.46;100311.61;1784110;78;20459;-73
2022/02/26 09:02:12;;;;;;;7.60;2.60;;;;;;;5.66;56.04;100316.33;1782645;79;21095;-73
2022/02/26 09:04:38;;;;;;;8.43;3.05;;;;;;;5.64;55.35;100319.03;1790691;79;20947;-74
2022/02/26 09:07:05;;;;;;;9.83;3.02;;;;;;;5.61;55.47;100306.73;1787539;77;22116;-74
2022/02/26 09:09:33;;;;;;;4.97;2.10;;;;;;;5.67;55.35;100317.95;1785538;79;20923;-74
2022/02/26 09:11:59;;;;;;;7.42;2.22;;;;;;;5.75;55.61;100316.61;1782960;79;20935;-73
2022/02/26 09:14:27;;;;;;;8.40;1.92;;;;;;;5.82;55.23;100317.19;1788110;77;20971;-73
2022/02/26 09:16:55;;;;;;;9.83;2.58;;;;;;;5.93;55.54;100319.42;1787674;78;21082;-73
2022/02/26 09:22:45;;;;;;;9.53;2.58;;;;;;;6.15;54.18;100321.14;1784087;78;21601;-72
2022/02/26 09:25:14;;;;;;;6.85;2.30;;;;;;;6.31;54.57;100321.17;1795793;79;20965;-69
2022/02/26 09:27:47;;;;;;;5.35;2.30;;;;;;;6.41;53.34;100324.45;1771033;80;21405;-72
2022/02/26 09:30:15;;;;;;;8.45;2.65;;;;;;;6.40;52.80;100322.27;1771916;80;20976;-73
2022/02/26 09:32:42;;;;;;;7.97;3.15;;;;;;;6.41;52.32;100317.08;1772630;80;21059;-72
2022/02/26 09:35:10;;;;;;;3.80;1.47;;;;;;;6.52;52.71;100327.47;1770943;80;21446;-71
2022/02/26 09:37:40;;;;;;;6.45;1.98;;;;;;;6.66;53.07;100318.71;1773133;80;21085;-70
2022/02/26 09:40:08;;;;;;;6.37;2.02;;;;;;;6.82;52.67;100323.08;1766985;79;20985;-74
2022/02/26 09:42:36;;;;;;;4.97;2.08;;;;;;;6.94;51.58;100334.33;1719427;82;21013;-73
2022/02/26 09:45:03;;;;;;;9.08;2.17;;;;;;;7.00;51.35;100322.25;1744260;81;22015;-73
2022/02/26 09:47:30;;;;;;;5.33;2.05;;;;;;;7.03;50.58;100328.55;1742211;81;20950;-69
2022/02/26 09:49:56;;;;;;;4.85;1.60;;;;;;;7.02;50.64;100324.17;1731714;81;21562;-73
2022/02/26 09:52:24;;;;;;;8.35;2.05;;;;;;;7.02;49.31;100332.94;1737454;81;21454;-74
2022/02/26 09:54:53;;;;;;;5.30;1.70;;;;;;;7.02;49.37;100333.77;1746778;81;21012;-72
2022/02/26 09:57:21;;;;;;;2.05;1.10;;;;;;;7.05;49.19;100331.00;1717462;82;21138;-71
2022/02/26 09:59:49;;;;;;;4.95;1.70;;;;;;;7.13;48.63;100337.86;1731626;82;20984;-73
2022/02/26 10:02:17;;;;;;;4.45;2.08;;;;;;;7.20;48.75;100345.80;1736500;80;20983;-71
2022/02/26 10:04:56;;;;;;;6.28;1.77;;;;;;;7.24;47.82;100349.07;1723160;81;20960;-72
2022/02/26 10:07:26;;;;;;;6.58;2.20;;;;;;;7.17;47.37;100356.75;1730638;81;20937;-72
2022/02/26 10:09:55;;;;;;;4.08;1.20;;;;;;;7.05;46.97;100350.19;1722573;82;21553;-73
2022/02/26 10:12:33;;;;;;;2.85;1.17;;;;;;;6.90;46.06;100350.48;1720872;81;20924;-73
2022/02/26 10:15:03;;;;;;;3.85;1.95;;;;;;;6.82;45.39;100355.95;1772138;80;20943;-72
2022/02/26 10:17:38;;;;;;;2.83;1.40;;;;;;;6.72;46.54;100354.58;1780855;79;20880;-72
2022/02/26 10:20:18;;;;;;;3.67;1.57;;;;;;;6.81;47.34;100359.80;1795508;78;20923;-74
2022/02/26 10:22:57;;;;;;;3.52;1.07;;;;;;;7.00;48.09;100360.61;1680240;84;21822;-72
2022/02/26 10:25:29;;;;;;;3.55;1.32;;;;;;;7.13;45.32;100359.22;1682861;84;20952;-72
2022/02/26 10:27:59;;;;;;;3.05;1.35;;;;;;;7.17;45.98;100371.83;1682750;84;21052;-74
2022/02/26 10:30:34;;;;;;;4.35;1.25;;;;;;;7.20;45.28;100372.64;1682195;84;21047;-73
2022/02/26 10:33:25;;;;;;;4.55;1.40;;;;;;;7.15;43.56;100376.22;1667432;84;21603;-74
2022/02/26 10:35:56;;;;;;;4.20;1.55;;;;;;;7.03;42.71;100390.74;1683454;83;21061;-73
2022/02/26 10:38:33;;;;;;;4.55;1.47;;;;;;;6.96;42.88;100382.80;1684903;84;20876;-73
2022/02/26 10:41:06;;;;;;;2.33;0.90;;;;;;;6.94;44.57;100385.02;1670255;84;21151;-72
2022/02/26 10:43:44;;;;;;;3.17;0.75;;;;;;;6.97;40.91;100378.98;1674655;84;21024;-74
2022/02/26 10:46:32;;;;;;;2.05;0.82;;;;;;;7.01;42.37;100378.69;1679186;84;21062;-75
2022/02/26 10:49:09;;;;;;;2.62;1.10;;;;;;;7.09;41.72;100376.50;1682936;84;21248;-73
2022/02/26 10:51:43;;;;;;;2.87;1.00;;;;;;;7.10;41.30;100374.02;1680748;84;21253;-73
2022/02/26 10:54:24;;;;;;;2.27;0.90;;;;;;;7.15;41.58;100383.07;1681831;84;21556;-73
2022/02/26 10:56:52;;;;;;;2.08;0.70;;;;;;;7.19;41.35;100379.23;1682397;84;21078;-72
2022/02/26 10:59:29;;;;;;;2.15;0.68;;;;;;;7.21;41.03;100372.09;1685432;83;21075;-73
2022/02/26 11:02:22;;;;;;;1.70;0.90;;;;;;;7.18;41.65;100375.66;1678396;84;21421;-73
2022/02/26 11:04:46;;;;;;;3.72;1.00;;;;;;;7.23;41.66;100368.00;1660855;85;20952;-74
2022/02/26 11:07:14;;;;;;;3.80;1.42;;;;;;;7.30;41.80;100369.88;1686790;84;21064;-75
2022/02/26 11:09:43;;;;;;;4.33;0.90;;;;;;;7.37;41.83;100375.65;1686090;84;21060;-73
2022/02/26 11:12:14;;;;;;;2.75;0.82;;;;;;;7.46;42.38;100387.67;1686155;84;21121;-71
2022/02/26 11:14:50;;;;;;;5.50;1.95;;;;;;;7.61;42.19;100379.16;1680176;84;21527;-73
2022/02/26 11:17:20;;;;;;;1.77;0.88;;;;;;;7.70;41.85;100382.95;1674436;83;21087;-72
2022/02/26 11:19:48;;;;;;;2.85;0.78;;;;;;;7.64;40.56;100384.88;1684382;84;21456;-72
2022/02/26 11:22:22;;;;;;;1.27;0.53;;;;;;;7.62;40.48;100379.41;1680267;84;21153;-74
2022/02/26 11:24:53;;;;;;;2.27;0.70;;;;;;;7.62;40.23;100389.02;1674124;84;21612;-75
2022/02/26 11:27:26;;;;;;;1.95;0.70;;;;;;;7.63;39.51;100386.53;1680622;84;21191;-75
2022/02/26 11:29:56;;;;;;;1.67;0.80;;;;;;;7.58;39.90;100392.86;1679505;84;21072;-73
2022/02/26 11:32:28;;;;;;;3.98;0.70;;;;;;;7.58;40.07;100386.55;1679958;84;21083;-73
2022/02/26 11:35:18;;;;;;;1.65;0.57;;;;;;;7.49;39.74;100398.09;1662724;83;21505;-73
2022/02/26 11:37:52;;;;;;;3.92;0.70;;;;;;;7.37;39.67;100391.53;1685215;84;21481;-72
2022/02/26 11:40:18;;;;;;;4.78;1.02;;;;;;;7.25;38.98;100400.62;1662792;85;21141;-75
2022/02/26 11:42:45;;;;;;;1.45;0.60;;;;;;;7.27;39.61;100390.17;1685405;84;20905;-75
2022/02/26 11:45:23;;;;;;;1.57;0.72;;;;;;;7.41;39.93;100402.77;1679638;84;21524;-74
2022/02/26 11:48:08;;;;;;;2.02;0.70;;;;;;;7.54;40.15;100410.42;1679937;84;21060;-74
2022/02/26 11:50:41;;;;;;;3.00;1.25;;;;;;;7.43;39.16;100403.32;1682824;84;21080;-74
2022/02/26 11:53:17;;;;;;;1.45;0.72;;;;;;;7.34;39.66;100394.83;1674397;84;21139;-73
2022/02/26 11:55:57;;;;;;;3.12;1.20;;;;;;;7.29;39.38;100411.28;1677827;84;20998;-73
2022/02/26 11:58:38;;;;;;;3.05;1.00;;;;;;;7.28;40.21;100397.31;1678339;83;21118;-72
2022/02/26 12:01:15;;;;;;;2.35;1.22;;;;;;;7.40;41.04;100397.03;1678325;84;21072;-74
2022/02/26 12:03:50;;;;;;;;;;;;;;;7.65;41.98;100408.48;1682515;84;20901;-73
2022/02/26 12:06:27;;;;;;;5.95;1.55;;;;;;;7.78;42.05;100405.69;1680173;84;21823;-72
2022/02/26 12:09:07;;;;;;;5.53;1.60;;;;;;;7.82;41.60;100400.47;1680418;84;21111;-73
2022/02/26 12:11:45;;;;;;;3.92;1.77;;;;;;;7.87;42.37;100410.59;1676119;83;20973;-72
2022/02/26 12:18:38;;;;;;;2.40;1.17;;;;;;;7.90;42.21;100404.55;1679530;84;21077;-74
2022/02/26 12:21:10;;;;;;;4.85;1.40;;;;;;;7.91;43.44;100407.58;1680008;84;21190;-72
2022/02/26 12:23:44;;;;;;;3.08;1.40;;;;;;;8.06;43.15;100403.11;1682953;84;20948;-72
2022/02/26 12:26:11;;;;;;;8.25;1.80;;;;;;;8.21;42.85;100400.84;1686220;84;21480;-74
2022/02/26 12:28:39;;;;;;;2.77;1.50;;;;;;;8.32;43.31;100409.31;1680107;84;21032;-73
2022/02/26 12:31:08;;;;;;;2.12;1.17;;;;;;;8.39;43.22;100404.31;1674181;84;21057;-71
2022/02/26 12:33:45;;;;;;;3.90;1.37;;;;;;;8.50;43.28;100409.20;1677400;84;21105;-71
2022/02/26 12:36:15;;;;;;;2.33;0.80;;;;;;;8.56;42.83;100414.16;1678037;84;21020;-73
2022/02/26 12:38:48;;;;;;;2.67;1.20;;;;;;;8.60;41.02;100413.83;1659842;85;21061;-73
2022/02/26 12:41:36;;;;;;;2.75;0.95;;;;;;;8.55;40.75;100418.53;1687299;84;21036;-72
2022/02/26 12:44:06;;;;;;;3.87;1.10;;;;;;;8.49;40.66;100408.11;1683725;84;20976;-73
2022/02/26 12:46:33;;;;;;;2.83;0.82;;;;;;;8.45;41.18;100413.89;1689151;84;21160;-73
2022/02/26 12:49:02;;;;;;;2.77;1.00;;;;;;;8.42;40.67;100418.05;1678995;84;20933;-74
2022/02/26 12:51:31;;;;;;;2.05;0.80;;;;;;;8.45;41.18;100413.89;1685078;84;21066;-74
2022/02/26 12:53:58;;;;;;;1.60;0.53;;;;;;;8.51;39.61;100411.41;1687919;84;21513;-74
2022/02/26 12:56:35;;;;;;;3.35;1.10;;;;;;;8.57;39.54;100420.45;1682095;85;21031;-73
2022/02/26 12:59:16;;;;;;;3.52;1.10;;;;;;;8.62;39.20;100413.00;1685017;83;21041;-73
2022/02/26 13:01:45;;;;;;;2.52;0.70;;;;;;;8.58;38.37;100411.12;1680185;84;21024;-72
2022/02/26 13:04:16;;;;;;;2.65;1.00;;;;;;;8.49;37.31;100418.56;1659252;85;21003;-74
2022/02/26 13:07:08;;;;;;;6.95;0.85;;;;;;;8.33;37.50;100419.19;1683340;84;21036;-72
2022/02/26 13:09:57;;;;;;;3.92;1.07;;;;;;;8.22;38.30;100414.86;1678174;84;20937;-72
2022/02/26 13:12:32;;;;;;;2.55;0.98;;;;;;;8.17;37.99;100411.59;1684610;84;21462;-72
2022/02/26 13:15:09;;;;;;;3.33;1.00;;;;;;;8.05;37.52;100411.92;1677806;84;21032;-72
2022/02/26 13:17:39;;;;;;;3.17;1.00;;;;;;;7.78;38.29;100431.76;1679296;84;21013;-75
2022/02/26 13:20:26;;;;;;;5.33;0.85;;;;;;;7.57;38.13;100432.38;1677546;84;20901;-73
2022/02/26 13:22:59;;;;;;;2.40;1.20;;;;;;;7.43;38.90;100426.63;1681800;84;21055;-74
2022/02/26 13:25:32;;;;;;;4.42;0.93;;;;;;;7.37;39.23;100431.86;1680324;84;21304;-74
2022/02/26 13:27:59;;;;;;;1.55;0.88;;;;;;;7.37;40.20;100417.58;1679610;83;21007;-74
2022/02/26 13:30:28;;;;;;;3.65;0.90;;;;;;;7.52;40.10;100421.41;1679064;84;21082;-72
2022/02/26 13:32:59;;;;;;;4.00;0.85;;;;;;;7.66;40.33;100420.25;1679167;84;21059;-74
2022/02/26 13:35:29;;;;;;;3.30;0.90;;;;;;;7.81;39.62;100426.28;1684053;84;21031;-73
2022/02/26 13:37:58;;;;;;;3.62;1.00;;;;;;;7.91;38.71;100428.99;1679232;84;21345;-72
2022/02/26 13:40:24;;;;;;;4.90;1.00;;;;;;;7.90;38.66;100423.21;1683603;84;20996;-73
2022/02/26 13:43:01;;;;;;;5.70;0.98;;;;;;;7.86;38.35;100430.92;1677773;84;20983;-73
2022/02/26 13:45:32;;;;;;;5.97;1.15;;;;;;;7.80;39.08;100432.84;1681456;84;21084;-73
2022/02/26 13:47:59;;;;;;;2.98;0.90;;;;;;;7.76;39.08;100436.69;1680050;84;21058;-72
2022/02/26 13:50:32;;;;;;;4.30;0.80;;;;;;;7.62;39.51;100436.48;1688412;84;21152;-72
2022/02/26 13:52:59;;;;;;;2.75;0.93;;;;;;;7.61;39.69;100442.24;1686801;84;21000;-73
2022/02/26 13:55:26;;;;;;;4.55;1.10;;;;;;;7.59;39.64;100436.20;1680900;84;21044;-74
2022/02/26 13:57:53;;;;;;;5.95;1.07;;;;;;;7.63;39.52;100439.48;1688508;83;21103;-72
2022/02/26 14:00:22;;;;;;;7.85;1.10;;;;;;;7.74;40.00;100443.58;1655357;85;20968;-73
2022/02/26 14:03:12;;;;;;;2.40;1.10;;;;;;;7.89;39.19;100445.45;1679171;84;21055;-73
2022/02/26 14:05:41;;;;;;;2.62;1.00;;;;;;;7.98;39.26;100447.91;1659074;85;21086;-74
2022/02/26 14:08:09;;;;;;;4.20;0.93;;;;;;;8.24;38.86;100442.86;1675574;84;21072;-72
2022/02/26 14:10:41;;;;;;;2.15;0.90;;;;;;;8.56;37.77;100444.91;1681725;84;21647;-74
2022/02/26 14:13:13;;;;;;;1.87;0.70;;;;;;;8.72;37.66;100445.62;1680534;84;20977;-75
2022/02/26 14:15:49;;;;;;;3.47;1.07;;;;;;;8.91;37.17;100449.89;1679675;84;22302;-72
2022/02/26 14:18:23;;;;;;;3.08;1.30;;;;;;;9.03;37.78;100452.83;1660536;85;21000;-73
2022/02/26 14:20:52;;;;;;;3.00;1.05;;;;;;;9.14;36.85;100448.91;1678101;84;21036;-72
2022/02/26 14:23:23;;;;;;;5.95;1.20;;;;;;;9.27;36.96;100456.21;1684041;84;21016;-73
2022/02/26 14:25:49;;;;;;;1.82;0.82;;;;;;;9.31;36.03;100455.37;1661357;85;21068;-73
2022/02/26 14:28:19;;;;;;;5.33;0.90;;;;;;;9.27;36.21;100457.04;1631331;83;21111;-71
2022/02/26 14:30:46;;;;;;;1.72;0.80;;;;;;;9.24;36.19;100457.63;1678425;84;21029;-72
2022/02/26 14:33:14;;;;;;;5.60;0.80;;;;;;;9.27;35.94;100456.21;1658615;84;20969;-73
2022/02/26 14:35:41;;;;;;;5.28;1.00;;;;;;;9.23;35.65;100462.30;1683065;84;20936;-72
2022/02/26 14:38:14;;;;;;;;;;;;;;;9.03;36.27;100459.16;1687762;84;21028;-73
2022/02/26 14:50:55;;;;;;;2.58;1.10;;;;;;;7.97;37.94;100472.86;1655738;85;21096;-74
2022/02/26 14:53:22;;;;;;;2.95;1.10;;;;;;;7.71;38.09;100477.05;1650627;85;21571;-73
2022/02/26 14:55:50;;;;;;;3.50;1.45;;;;;;;7.61;38.77;100479.27;1624972;87;21515;-75
2022/02/26 14:58:17;;;;;;;2.58;1.50;;;;;;;7.46;39.01;100483.66;1625951;86;20995;-74
2022/02/26 15:00:47;;;;;;;3.90;1.15;;;;;;;7.24;39.37;100486.14;1652117;85;21436;-75
2022/02/26 15:03:14;;;;;;;3.37;1.30;;;;;;;7.04;40.14;100480.10;1656855;85;21063;-72
2022/02/26 15:05:40;;;;;;;4.08;1.75;;;;;;;6.90;40.68;100482.55;1658559;85;20963;-74
2022/02/26 15:08:10;;;;;;;4.10;1.57;;;;;;;6.71;41.10;100481.69;1639520;86;21482;-73
2022/02/26 15:10:38;;;;;;;4.25;1.60;;;;;;;6.52;41.65;100488.20;1627286;86;21067;-73
2022/02/26 15:13:05;;;;;;;4.62;1.50;;;;;;;6.35;42.54;100482.40;1682478;84;21031;-76
2022/02/26 15:15:33;;;;;;;3.37;1.52;;;;;;;6.16;42.99;100486.97;1688286;84;20960;-74
2022/02/26 15:17:59;;;;;;;5.72;1.75;;;;;;;6.04;43.53;100487.16;1679533;84;21005;-74
2022/02/26 15:20:30;;;;;;;3.80;1.80;;;;;;;5.97;43.98;100497.53;1681515;84;21768;-69
2022/02/26 15:22:56;;;;;;;3.45;1.32;;;;;;;5.94;44.18;100498.88;1680511;84;21016;-72
2022/02/26 15:25:24;;;;;;;5.30;1.85;;;;;;;5.86;44.83;100498.01;1658528;84;21560;-71
2022/02/26 16:10:28;;;;;;;9.80;3.83;;;;;;;4.78;49.29;100552.84;1675593;82;21110;-73
2022/02/26 16:12:55;;;;;;;8.35;3.22;;;;;;;4.76;49.30;100556.36;1680591;84;21533;-71
2022/02/26 16:15:21;;;;;;;14.63;4.05;;;;;;;4.72;49.51;100560.70;1683441;84;21000;-75
2022/02/26 16:17:47;;;;;;;9.40;4.10;;;;;;;4.69;49.70;100559.84;1707231;82;21073;-75
2022/02/26 16:23:40;;;;;;;9.38;3.80;;;;;;;4.64;49.90;100563.32;1688931;83;21044;-71
2022/02/26 16:26:08;;;;;;;8.95;3.50;;;;;;;4.61;50.33;100567.40;1706172;83;21047;-73
2022/02/26 16:38:53;;;;;;;22.35;6.10;;;;;;;4.60;51.22;100576.68;1603306;88;21393;-70
2022/02/26 16:41:19;;;;;;;11.93;6.10;;;;;;;4.58;51.14;100580.73;1606058;87;21141;-73
2022/02/26 16:43:50;;;;;;;13.53;5.92;;;;;;;4.56;51.25;100582.34;1617364;87;21117;-70
2022/02/26 16:46:16;;;;;;;11.28;4.35;;;;;;;4.53;51.42;100580.13;1600273;89;21117;-72
2022/02/26 16:48:42;;;;;;;11.00;4.78;;;;;;;4.48;51.48;100587.72;1634077;84;20996;-73
2022/02/26 16:51:10;;;;;;;11.15;4.92;;;;;;;4.45;51.60;100590.13;1678744;84;21114;-75
2022/02/26 16:53:40;;;;;;;16.07;5.83;;;;;;;4.40;51.72;100588.69;1681964;84;21023;-73